Time;durP1;ratioP1;P1;durP2;ratioP2;P2;SDS_P1;SDS_P2;PMS_P1;PMS_P2;Temp;Humidity;BMP_temperature;BMP_pressure;BME280_temperature;BME280_humidity;BME280_pressure;Samples;Min_cycle;Max_cycle;Signal;HPM_P1;HPM_P2
2021/12/12 00:00:53;;;;;;;48.80;34.05;;;-10.00;85.10;-10.90;99963.00;;;;4958958;28;92399;-56
2021/12/12 00:03:35;;;;;;;54.50;33.88;;;-9.90;85.20;-10.90;99968.00;;;;4977386;28;93042;-58
2021/12/12 00:06:16;;;;;;;55.42;36.40;;;-10.00;85.10;-10.80;99964.00;;;;4978716;28;92226;-59
2021/12/12 00:08:45;;;;;;;;;;;-9.90;85.10;-10.80;99966.00;;;;4991663;28;92704;-58
2021/12/12 00:11:18;;;;;;;59.75;36.70;;;-9.90;85.00;-10.80;99969.00;;;;4958760;28;92042;-59
2021/12/12 00:14:12;;;;;;;59.03;37.85;;;-9.90;85.00;-10.90;99967.00;;;;4958498;28;92035;-59
2021/12/12 00:16:40;;;;;;;58.95;38.38;;;-10.00;84.70;-10.80;99966.00;;;;4970724;28;92146;-59
2021/12/12 00:19:08;;;;;;;62.17;38.30;;;-9.90;84.90;-10.80;99964.00;;;;4978461;28;92788;-57
2021/12/12 00:21:39;;;;;;;59.75;38.40;;;-9.90;84.90;-10.80;99979.00;;;;4978992;28;92376;-57
2021/12/12 00:24:10;;;;;;;53.75;34.85;;;-9.90;85.00;-10.80;99968.00;;;;4972202;28;92277;-58
2021/12/12 00:26:36;;;;;;;59.50;37.15;;;-9.90;84.90;-10.80;99978.00;;;;4978006;28;93487;-57
2021/12/12 00:29:05;;;;;;;55.53;35.10;;;-9.90;84.80;-10.80;99983.00;;;;4976550;28;95124;-59
2021/12/12 00:31:32;;;;;;;55.42;33.15;;;-9.90;84.80;-10.80;99990.00;;;;4977981;28;93342;-59
2021/12/12 00:34:00;;;;;;;53.30;34.75;;;-9.90;84.90;-10.80;99980.00;;;;4978945;28;92357;-59
2021/12/12 00:36:29;;;;;;;49.10;31.55;;;-9.90;84.80;-10.80;99990.00;;;;4978278;28;93681;-57
2021/12/12 00:39:06;;;;;;;63.88;36.38;;;-9.90;84.70;-10.80;99993.00;;;;4976185;28;92817;-56
2021/12/12 00:41:48;;;;;;;59.60;33.72;;;-9.90;84.70;-10.80;99996.00;;;;4976619;28;92635;-56
2021/12/12 00:44:15;;;;;;;55.63;33.15;;;-9.90;84.90;-10.80;100000.00;;;;4977399;28;92107;-59
2021/12/12 00:46:44;;;;;;;55.97;32.08;;;-9.90;85.10;-10.90;99993.00;;;;4978383;28;91285;-57
2021/12/12 00:49:12;;;;;;;52.15;31.83;;;-10.00;84.80;-10.90;99991.00;;;;4978083;28;92748;-59
2021/12/12 00:51:42;;;;;;;49.97;30.02;;;-10.00;84.90;-10.90;99995.00;;;;4978176;28;93383;-59
2021/12/12 00:54:10;;;;;;;54.90;32.65;;;-10.00;85.10;-10.80;99991.00;;;;4978026;28;93212;-58
2021/12/12 00:56:37;;;;;;;52.03;33.75;;;-9.90;85.30;-10.80;99991.00;;;;4981218;28;92369;-58
2021/12/12 00:59:05;;;;;;;52.53;30.20;;;-9.90;85.20;-10.90;99995.00;;;;4958149;28;92797;-56
2021/12/12 01:01:45;;;;;;;60.60;33.75;;;-10.00;85.20;-10.80;99994.00;;;;4958469;28;92440;-56
2021/12/12 01:04:37;;;;;;;56.30;31.92;;;-9.90;85.70;-10.80;100000.00;;;;4958746;28;92132;-58
2021/12/12 01:07:17;;;;;;;48.15;30.35;;;-9.90;85.50;-10.80;99992.00;;;;4958577;28;92060;-57
2021/12/12 01:09:59;;;;;;;54.40;29.88;;;-9.90;85.30;-10.80;100003.00;;;;4965218;28;92710;-59
2021/12/12 01:12:30;;;;;;;54.95;31.38;;;-9.90;85.80;-10.80;100002.00;;;;4968015;28;93839;-55
2021/12/12 01:15:09;;;;;;;46.53;30.92;;;-9.90;85.70;-10.80;99997.00;;;;4975290;28;92226;-60
2021/12/12 01:17:41;;;;;;;46.78;28.85;;;-9.90;85.70;-10.80;99996.00;;;;4978172;28;92120;-58
2021/12/12 01:20:29;;;;;;;46.35;27.00;;;-9.90;85.60;-10.80;99984.00;;;;4977357;28;94054;-58
2021/12/12 01:23:02;;;;;;;46.95;29.15;;;-9.90;85.60;-10.80;99997.00;;;;4971134;28;93454;-59
2021/12/12 01:25:44;;;;;;;42.47;28.05;;;-9.90;85.40;-10.70;99987.00;;;;4978209;28;92261;-59
2021/12/12 01:28:16;;;;;;;50.25;30.13;;;-9.90;85.30;-10.80;99991.00;;;;4977887;28;92033;-59
2021/12/12 01:30:43;;;;;;;44.17;27.77;;;-9.80;85.60;-10.70;99982.00;;;;4977729;28;92747;-59
2021/12/12 01:33:11;;;;;;;47.60;29.23;;;-9.80;85.60;-10.70;99971.00;;;;4977774;28;92331;-58
2021/12/12 01:35:40;;;;;;;44.70;26.98;;;-9.90;85.50;-10.70;99973.00;;;;4978023;28;92054;-59
2021/12/12 01:40:58;;;;;;;40.53;24.92;;;-9.80;85.70;-10.70;99959.00;;;;4977736;28;92558;-59
2021/12/12 01:43:54;;;;;;;38.67;23.92;;;-9.80;85.90;-10.70;99957.00;;;;4977747;28;92483;-58
2021/12/12 01:46:27;;;;;;;39.47;23.92;;;-9.80;85.70;-10.70;99957.00;;;;4977206;28;92980;-59
2021/12/12 01:49:20;;;;;;;43.58;26.45;;;-9.70;86.10;-10.70;99952.00;;;;4993294;28;92111;-59
2021/12/12 01:51:52;;;;;;;36.25;23.60;;;-9.80;86.30;-10.70;99963.00;;;;4979453;28;92882;-57
2021/12/12 01:54:42;;;;;;;42.88;23.88;;;-9.70;86.70;-10.60;99955.00;;;;4981094;28;92428;-58
2021/12/12 01:57:20;;;;;;;40.38;23.63;;;-9.70;86.60;-10.60;99967.00;;;;4964594;28;92317;-57
2021/12/12 01:59:49;;;;;;;44.90;25.35;;;-9.70;87.30;-10.60;99957.00;;;;4961567;28;92093;-59
2021/12/12 02:02:28;;;;;;;56.38;30.08;;;-9.70;86.60;-10.60;99972.00;;;;4961317;28;93328;-59
2021/12/12 02:05:01;;;;;;;52.10;29.13;;;-9.70;86.50;-10.60;99962.00;;;;4961746;28;92444;-58
2021/12/12 02:07:33;;;;;;;39.38;23.33;;;-9.70;86.80;-10.50;99968.00;;;;4983349;28;92537;-57
2021/12/12 02:10:08;;;;;;;36.00;22.70;;;-9.60;86.60;-10.50;99964.00;;;;4970641;28;92500;-57
2021/12/12 02:12:34;;;;;;;43.67;24.23;;;-9.60;86.50;-10.50;99948.00;;;;4960360;28;93655;-59
2021/12/12 02:15:02;;;;;;;42.60;24.88;;;-9.60;86.50;-10.50;99964.00;;;;4960033;28;93268;-58
2021/12/12 02:17:38;;;;;;;42.28;25.38;;;-9.60;86.50;-10.40;99968.00;;;;4978046;28;92011;-59
2021/12/12 02:20:38;;;;;;;46.97;25.85;;;-9.50;86.40;-10.40;99972.00;;;;4980804;28;92290;-59
2021/12/12 02:23:40;;;;;;;43.53;25.95;;;-9.50;86.30;-10.40;99969.00;;;;4975878;28;92772;-59
2021/12/12 02:37:10;;;;;;;51.67;29.25;;;-9.60;86.40;-10.50;99936.00;;;;4960239;28;92392;-57
2021/12/12 02:39:38;;;;;;;51.22;29.63;;;-9.60;86.40;-10.40;99943.00;;;;4960408;28;93368;-60
2021/12/12 02:42:11;;;;;;;50.72;29.70;;;-9.50;86.30;-10.40;99956.00;;;;4976185;28;92477;-59
2021/12/12 02:44:40;;;;;;;51.05;30.85;;;-9.50;86.40;-10.40;99956.00;;;;4971379;28;95494;-60
2021/12/12 02:47:14;;;;;;;49.78;29.83;;;-9.50;86.40;-10.40;99959.00;;;;4979708;28;92411;-60
2021/12/12 02:52:31;;;;;;;49.90;30.60;;;-9.50;86.60;-10.30;99937.00;;;;4980315;28;92102;-59
2021/12/12 02:55:05;;;;;;;57.45;30.27;;;-9.50;86.60;-10.30;99940.00;;;;4979076;28;92770;-58
2021/12/12 02:57:31;;;;;;;50.67;30.25;;;-9.50;86.60;-10.30;99944.00;;;;4960592;28;92542;-58
2021/12/12 02:59:58;;;;;;;55.00;28.73;;;-9.50;86.70;-10.30;99930.00;;;;4959802;28;92468;-59
2021/12/12 03:02:29;;;;;;;63.85;33.38;;;-9.40;86.80;-10.30;99933.00;;;;4958277;28;92397;-58
2021/12/12 03:05:00;;;;;;;51.28;29.20;;;-9.40;86.70;-10.30;99939.00;;;;4958610;28;95074;-59
2021/12/12 03:07:28;;;;;;;64.13;35.10;;;-9.40;86.70;-10.30;99948.00;;;;4959889;28;93631;-58
2021/12/12 03:09:57;;;;;;;55.80;30.05;;;-9.40;86.70;-10.20;99948.00;;;;4968668;28;92136;-59
2021/12/12 03:12:33;;;;;;;58.30;30.70;;;-9.40;86.70;-10.20;99937.00;;;;4979456;28;92127;-59
2021/12/12 03:15:25;;;;;;;65.70;33.92;;;-9.30;86.90;-10.20;99933.00;;;;4979650;28;92621;-58
2021/12/12 03:17:55;;;;;;;57.63;33.50;;;-9.30;86.80;-10.20;99930.00;;;;4959926;28;92151;-59
2021/12/12 03:20:31;;;;;;;65.18;33.92;;;-9.30;86.90;-10.20;99941.00;;;;4959657;28;91958;-58
2021/12/12 03:23:19;;;;;;;70.57;36.35;;;-9.30;86.80;-10.10;99945.00;;;;4960349;28;91479;-60
2021/12/12 03:25:52;;;;;;;63.90;35.38;;;-9.30;87.10;-10.10;99937.00;;;;4959867;28;92541;-56
2021/12/12 03:28:23;;;;;;;62.40;33.78;;;-9.20;87.20;-10.10;99947.00;;;;4963774;28;92575;-57
2021/12/12 03:30:53;;;;;;;66.43;33.73;;;-9.20;87.10;-10.10;99941.00;;;;4979400;28;92974;-59
2021/12/12 03:33:21;;;;;;;65.55;36.88;;;-9.30;87.30;-10.10;99939.00;;;;4979627;28;92053;-58
2021/12/12 03:35:52;;;;;;;60.67;33.30;;;-9.30;87.10;-10.10;99935.00;;;;4979107;28;94053;-59
2021/12/12 03:38:19;;;;;;;67.70;34.77;;;-9.30;87.20;-10.10;99930.00;;;;4978321;28;93611;-58
2021/12/12 03:40:46;;;;;;;62.67;34.25;;;-9.20;87.00;-10.10;99935.00;;;;4978171;28;92234;-57
2021/12/12 03:43:14;;;;;;;62.67;29.92;;;-9.30;86.80;-10.10;99927.00;;;;4979718;28;92043;-57
2021/12/12 03:45:44;;;;;;;58.53;32.33;;;-9.20;87.10;-10.10;99933.00;;;;4978862;28;93139;-58
2021/12/12 03:48:25;;;;;;;63.95;33.33;;;-9.20;87.20;-10.10;99930.00;;;;4994678;28;92414;-58
2021/12/12 03:50:56;;;;;;;59.42;32.42;;;-9.30;87.20;-10.10;99947.00;;;;4979359;28;92412;-59
2021/12/12 03:53:25;;;;;;;65.72;36.20;;;-9.20;87.40;-10.10;99939.00;;;;4979202;28;92114;-58
2021/12/12 03:55:52;;;;;;;63.03;33.33;;;-9.20;87.20;-10.10;99936.00;;;;4970521;28;93253;-57
2021/12/12 03:58:18;;;;;;;73.38;36.20;;;-9.20;87.20;-10.00;99938.00;;;;4958966;28;93105;-58
2021/12/12 04:00:56;;;;;;;57.00;32.50;;;-9.20;87.20;-10.00;99937.00;;;;4959618;28;91901;-58
2021/12/12 04:03:24;;;;;;;65.25;32.55;;;-9.20;87.10;-10.00;99935.00;;;;4959529;28;92028;-59
2021/12/12 04:05:59;;;;;;;74.40;35.15;;;-9.10;87.00;-10.00;99925.00;;;;4959423;28;92638;-57
2021/12/12 04:08:35;;;;;;;61.22;32.28;;;-9.10;87.00;-10.00;99928.00;;;;4958560;28;92557;-59
2021/12/12 04:11:07;;;;;;;49.10;30.23;;;-9.20;86.90;-10.00;99917.00;;;;4977404;28;91876;-59
2021/12/12 04:13:40;;;;;;;50.75;30.40;;;-9.20;86.80;-10.00;99941.00;;;;4979298;28;91222;-59
2021/12/12 04:16:08;;;;;;;56.85;31.15;;;-9.20;86.60;-10.00;99935.00;;;;4978647;28;92666;-60
2021/12/12 04:18:35;;;;;;;56.90;30.25;;;-9.20;87.30;-10.00;99950.00;;;;4978447;28;92421;-59
2021/12/12 04:21:01;;;;;;;46.17;27.55;;;-9.20;86.70;-10.10;99940.00;;;;4978349;28;92945;-56
2021/12/12 04:23:28;;;;;;;48.10;29.63;;;-9.20;86.50;-10.10;99941.00;;;;4972332;28;92441;-59
2021/12/12 04:26:26;;;;;;;51.70;27.45;;;-9.20;86.50;-10.10;99945.00;;;;4978256;28;92564;-59
2021/12/12 04:29:07;;;;;;;55.75;28.77;;;-9.20;86.70;-10.10;99948.00;;;;4978306;28;92358;-57
2021/12/12 04:31:37;;;;;;;48.05;26.35;;;-9.20;86.40;-10.10;99953.00;;;;4978867;28;91922;-57
2021/12/12 04:34:05;;;;;;;45.53;26.40;;;-9.20;86.30;-10.10;99950.00;;;;4978522;28;91998;-59
2021/12/12 04:36:39;;;;;;;63.22;29.15;;;-9.30;86.20;-10.10;99943.00;;;;4978226;28;92666;-59
2021/12/12 04:39:27;;;;;;;53.30;28.30;;;-9.30;86.00;-10.20;99955.00;;;;4978175;28;93609;-58
2021/12/12 04:42:21;;;;;;;47.65;26.42;;;-9.40;85.90;-10.30;99958.00;;;;4978659;28;92425;-57
2021/12/12 04:45:03;;;;;;;41.20;23.83;;;-9.40;85.90;-10.30;99963.00;;;;4978479;28;92386;-59
2021/12/12 04:51:05;;;;;;;39.42;24.98;;;-9.40;86.20;-10.30;99976.00;;;;4978099;28;93293;-57
2021/12/12 04:53:42;;;;;;;39.58;24.42;;;-9.50;86.10;-10.30;99968.00;;;;4978367;28;92480;-60
2021/12/12 04:56:27;;;;;;;45.08;25.42;;;-9.50;85.80;-10.40;99970.00;;;;4985472;28;91956;-58
2021/12/12 04:59:03;;;;;;;43.67;28.33;;;-9.50;85.80;-10.40;99976.00;;;;4973864;28;94774;-59
2021/12/12 05:02:01;;;;;;;44.95;26.98;;;-9.50;85.90;-10.50;99980.00;;;;4958509;28;92415;-58
2021/12/12 05:04:48;;;;;;;49.45;29.05;;;-9.60;85.80;-10.50;99974.00;;;;4957538;28;92445;-61
2021/12/12 05:07:32;;;;;;;43.35;26.63;;;-9.60;85.60;-10.50;99980.00;;;;4974298;28;91273;-61
2021/12/12 05:10:18;;;;;;;55.58;32.97;;;-9.60;85.90;-10.50;99980.00;;;;4957828;28;92749;-57
2021/12/12 05:13:00;;;;;;;50.75;28.20;;;-9.60;85.80;-10.50;99983.00;;;;4957150;28;93545;-56
2021/12/12 05:16:16;;;;;;;47.90;28.55;;;-9.70;85.80;-10.50;99980.00;;;;4958765;28;93019;-59
2021/12/12 05:18:51;;;;;;;43.53;28.08;;;-9.70;85.60;-10.50;99984.00;;;;4959571;28;92006;-58
2021/12/12 05:21:32;;;;;;;53.38;30.88;;;-9.60;85.80;-10.50;99982.00;;;;4977350;28;94019;-58
2021/12/12 05:24:02;;;;;;;56.70;29.38;;;-9.60;85.80;-10.50;99980.00;;;;4967863;28;92675;-58
2021/12/12 05:26:41;;;;;;;54.42;30.05;;;-9.60;86.30;-10.60;99971.00;;;;4960840;28;92089;-61
2021/12/12 05:30:29;;;;;;;42.08;28.10;;;-9.70;85.60;-10.50;99987.00;;;;4975711;28;94638;-62
2021/12/12 05:32:59;;;;;;;54.92;32.08;;;-9.70;85.90;-10.60;99978.00;;;;4939793;28;92594;-61
2021/12/12 05:35:32;;;;;;;42.97;27.00;;;-9.70;86.00;-10.60;99985.00;;;;4979654;28;92426;-61
2021/12/12 05:38:00;;;;;;;49.53;30.90;;;-9.70;86.10;-10.50;99977.00;;;;4979596;28;92501;-59
2021/12/12 05:40:31;;;;;;;55.20;32.88;;;-9.70;85.90;-10.50;99975.00;;;;4981275;28;92323;-59
2021/12/12 05:43:00;;;;;;;64.00;32.80;;;-9.70;85.70;-10.60;99982.00;;;;4980160;28;93652;-59
2021/12/12 05:45:31;;;;;;;44.15;27.35;;;-9.70;86.00;-10.60;99979.00;;;;4980781;28;93835;-59
2021/12/12 05:47:59;;;;;;;49.92;28.15;;;-9.70;86.00;-10.50;99973.00;;;;4981144;28;91999;-59
2021/12/12 05:50:26;;;;;;;52.22;29.65;;;-9.70;86.00;-10.50;99993.00;;;;4980779;28;92038;-57
2021/12/12 05:52:54;;;;;;;54.55;31.80;;;-9.70;85.80;-10.60;99983.00;;;;4995825;28;93933;-59
2021/12/12 05:55:23;;;;;;;52.60;32.38;;;-9.70;86.10;-10.60;99979.00;;;;4978930;28;93714;-60
2021/12/12 05:57:55;;;;;;;52.50;31.20;;;-9.70;86.10;-10.60;99985.00;;;;4961046;28;92005;-59
2021/12/12 06:00:28;;;;;;;68.70;32.75;;;-9.70;86.40;-10.50;99979.00;;;;4961479;28;91132;-58
2021/12/12 06:02:55;;;;;;;55.28;30.38;;;-9.70;86.50;-10.60;99979.00;;;;4961249;28;92752;-59
2021/12/12 06:05:22;;;;;;;55.08;32.20;;;-9.70;86.40;-10.60;99988.00;;;;4959633;28;92463;-59
2021/12/12 06:07:53;;;;;;;58.35;31.63;;;-9.70;86.40;-10.60;99977.00;;;;4959600;28;93107;-59
2021/12/12 06:10:20;;;;;;;71.75;37.63;;;-9.70;86.50;-10.50;99975.00;;;;4971703;28;92148;-60
2021/12/12 06:12:47;;;;;;;64.47;36.60;;;-9.70;86.40;-10.50;99982.00;;;;4979152;28;93742;-59
2021/12/12 06:15:17;;;;;;;64.32;34.38;;;-9.70;86.40;-10.50;99983.00;;;;4979866;28;93068;-61
2021/12/12 06:17:46;;;;;;;65.32;35.33;;;-9.70;86.60;-10.50;99987.00;;;;4980063;28;92553;-59
2021/12/12 06:20:14;;;;;;;77.28;38.30;;;-9.60;86.60;-10.50;99999.00;;;;4979056;28;92357;-59
2021/12/12 06:22:41;;;;;;;60.90;34.08;;;-9.60;87.00;-10.50;99986.00;;;;4974161;28;92734;-60
2021/12/12 06:25:10;;;;;;;75.95;35.58;;;-9.60;87.10;-10.50;99986.00;;;;4962809;28;92480;-59
2021/12/12 06:27:38;;;;;;;61.15;33.90;;;-9.60;87.10;-10.40;99988.00;;;;4960202;28;92698;-59
2021/12/12 06:30:11;;;;;;;67.30;32.17;;;-9.50;87.10;-10.40;99984.00;;;;4960744;28;92089;-60
2021/12/12 06:32:37;;;;;;;59.28;33.97;;;-9.50;87.10;-10.40;99981.00;;;;4959876;28;94127;-59
2021/12/12 06:35:07;;;;;;;63.92;33.05;;;-9.50;86.90;-10.40;99980.00;;;;4959941;28;93370;-58
2021/12/12 06:37:34;;;;;;;77.15;36.55;;;-9.50;86.70;-10.30;99980.00;;;;4959318;28;92192;-59
2021/12/12 06:40:01;;;;;;;60.50;33.47;;;-9.50;86.80;-10.30;99993.00;;;;4960729;28;92373;-57
2021/12/12 06:42:29;;;;;;;72.80;36.10;;;-9.40;87.20;-10.30;99983.00;;;;4959851;28;92876;-59
2021/12/12 06:44:55;;;;;;;69.25;36.80;;;-9.40;87.20;-10.30;99979.00;;;;4973566;28;92491;-58
2021/12/12 06:47:21;;;;;;;66.05;33.75;;;-9.40;87.00;-10.30;99986.00;;;;4979916;28;92307;-59
2021/12/12 06:49:48;;;;;;;71.80;35.70;;;-9.40;87.20;-10.30;99995.00;;;;4980639;28;91541;-59
2021/12/12 06:52:16;;;;;;;66.60;36.33;;;-9.40;87.20;-10.20;99986.00;;;;4978374;28;92767;-59
2021/12/12 06:54:43;;;;;;;69.53;37.15;;;-9.30;87.30;-10.20;99981.00;;;;4978237;28;92772;-59
2021/12/12 06:57:13;;;;;;;66.53;36.05;;;-9.30;86.90;-10.20;99992.00;;;;4962536;28;93217;-60
2021/12/12 06:59:42;;;;;;;71.87;37.30;;;-9.30;86.80;-10.10;99996.00;;;;4960478;28;92012;-61
2021/12/12 07:02:11;;;;;;;74.57;37.67;;;-9.20;87.00;-10.10;99993.00;;;;4959384;28;93726;-59
2021/12/12 07:04:39;;;;;;;78.18;38.83;;;-9.20;86.80;-10.10;99993.00;;;;4958239;28;93463;-57
2021/12/12 07:07:09;;;;;;;72.13;37.60;;;-9.30;86.80;-10.10;100000.00;;;;4960067;28;92343;-57
2021/12/12 07:09:37;;;;;;;85.18;37.60;;;-9.20;86.90;-10.10;99989.00;;;;4965380;28;92001;-57
2021/12/12 07:12:10;;;;;;;63.10;36.10;;;-9.20;86.70;-10.10;99985.00;;;;4971582;28;93696;-59
2021/12/12 07:14:39;;;;;;;78.63;35.88;;;-9.20;86.80;-10.10;99981.00;;;;4959752;28;92463;-60
2021/12/12 07:17:07;;;;;;;76.05;37.45;;;-9.20;86.90;-10.00;99977.00;;;;4974431;28;91963;-59
2021/12/12 07:19:36;;;;;;;80.88;37.28;;;-9.20;86.90;-10.00;99981.00;;;;4979390;28;92455;-61
2021/12/12 07:22:04;;;;;;;69.88;38.70;;;-9.20;86.90;-10.00;99981.00;;;;4977805;28;95130;-59
2021/12/12 07:24:31;;;;;;;70.50;36.67;;;-9.20;86.90;-10.00;99990.00;;;;4971900;28;94153;-59
2021/12/12 07:26:59;;;;;;;70.45;35.97;;;-9.10;87.00;-9.90;99988.00;;;;4972546;28;92086;-59
2021/12/12 07:29:27;;;;;;;82.10;38.83;;;-9.10;87.00;-9.90;99981.00;;;;4958862;28;92041;-61
2021/12/12 07:31:54;;;;;;;81.43;39.65;;;-9.10;87.00;-9.90;99978.00;;;;4957209;28;92688;-57
2021/12/12 07:34:20;;;;;;;74.22;37.05;;;-9.10;87.00;-9.90;99982.00;;;;4974548;28;92467;-62
2021/12/12 07:36:53;;;;;;;78.47;39.00;;;-9.00;87.10;-9.90;99970.00;;;;4958247;28;92118;-59
2021/12/12 07:39:22;;;;;;;89.60;43.97;;;-9.10;86.80;-9.90;99974.00;;;;4959940;28;91567;-59
2021/12/12 07:41:50;;;;;;;76.82;38.80;;;-9.00;86.80;-9.80;99976.00;;;;4958600;28;92948;-57
2021/12/12 07:44:23;;;;;;;82.70;40.33;;;-9.00;87.10;-9.80;99982.00;;;;4958966;28;93001;-59
2021/12/12 07:46:51;;;;;;;102.75;40.42;;;-8.90;87.20;-9.70;99981.00;;;;4957088;28;92961;-58
2021/12/12 07:49:24;;;;;;;83.07;41.47;;;-8.90;87.10;-9.80;99983.00;;;;4974569;28;92070;-59
2021/12/12 07:51:51;;;;;;;78.13;40.03;;;-8.90;87.20;-9.70;99977.00;;;;4958764;28;94632;-58
2021/12/12 07:54:18;;;;;;;81.38;42.22;;;-8.90;87.20;-9.70;99972.00;;;;4957566;28;93728;-59
2021/12/12 07:56:46;;;;;;;94.82;45.53;;;-8.90;86.90;-9.70;99982.00;;;;4958973;28;92146;-58
2021/12/12 07:59:15;;;;;;;107.13;46.25;;;-8.90;87.10;-9.70;99976.00;;;;4959062;28;92324;-57
2021/12/12 08:01:46;;;;;;;85.78;43.67;;;-8.80;87.10;-9.70;99981.00;;;;4958890;28;92663;-59
2021/12/12 08:04:15;;;;;;;82.78;39.67;;;-8.80;87.20;-9.60;99969.00;;;;4954822;28;92585;-58
2021/12/12 08:06:42;;;;;;;73.13;38.38;;;-8.80;87.30;-9.50;99979.00;;;;4974317;28;92171;-58
2021/12/12 08:09:11;;;;;;;85.13;42.67;;;-8.70;87.40;-9.40;99977.00;;;;4958550;28;92115;-59
2021/12/12 08:11:40;;;;;;;89.75;45.83;;;-8.60;87.50;-9.40;99986.00;;;;4957386;28;93489;-58
2021/12/12 08:14:12;;;;;;;107.28;47.95;;;-8.60;87.40;-9.40;99989.00;;;;4957161;28;93569;-58
2021/12/12 08:16:39;;;;;;;82.93;42.40;;;-8.60;87.30;-9.30;99978.00;;;;4970535;28;92217;-57
2021/12/12 08:19:06;;;;;;;86.82;43.72;;;-8.50;87.40;-9.30;99988.00;;;;4993890;28;92058;-63
2021/12/12 08:21:33;;;;;;;85.10;45.38;;;-8.50;87.40;-9.20;99973.00;;;;4993099;28;93366;-57
2021/12/12 08:24:06;;;;;;;89.43;43.30;;;-8.50;87.30;-9.20;99979.00;;;;4971493;28;92366;-59
2021/12/12 08:26:35;;;;;;;89.22;45.80;;;-8.40;87.30;-9.20;99972.00;;;;4977752;28;92332;-60
2021/12/12 08:29:05;;;;;;;102.10;46.65;;;-8.40;87.20;-9.20;99958.00;;;;4978085;28;91287;-55
2021/12/12 08:31:31;;;;;;;98.57;45.03;;;-8.40;87.10;-9.10;99950.00;;;;4977175;28;92815;-56
2021/12/12 08:33:58;;;;;;;99.35;44.17;;;-8.30;87.40;-9.10;99938.00;;;;4992712;28;93482;-59
2021/12/12 08:36:24;;;;;;;99.10;45.28;;;-8.30;87.20;-9.10;99945.00;;;;4992767;28;93198;-58
2021/12/12 08:38:52;;;;;;;90.35;46.30;;;-8.30;87.50;-9.10;99939.00;;;;4978031;28;92178;-61
2021/12/12 08:41:19;;;;;;;85.95;42.08;;;-8.30;87.40;-9.00;99951.00;;;;4993291;28;92687;-60
2021/12/12 08:43:46;;;;;;;116.25;49.53;;;-8.30;87.50;-9.00;99942.00;;;;4992581;28;93395;-59
2021/12/12 08:46:15;;;;;;;124.85;52.65;;;-8.20;87.50;-8.90;99960.00;;;;4985284;28;92146;-58
2021/12/12 08:48:49;;;;;;;119.75;52.03;;;-8.10;87.90;-8.90;99963.00;;;;4957579;28;92368;-55
2021/12/12 08:51:35;;;;;;;100.25;49.38;;;-8.10;87.50;-8.80;99961.00;;;;4957330;28;92833;-61
2021/12/12 08:54:14;;;;;;;83.85;43.97;;;-8.00;87.60;-8.70;99956.00;;;;4957472;28;91430;-63
2021/12/12 08:56:48;;;;;;;87.00;44.15;;;-8.00;87.80;-8.70;99963.00;;;;4969249;28;92507;-61
2021/12/12 08:59:25;;;;;;;111.25;48.65;;;-7.90;88.00;-8.70;99953.00;;;;4974189;28;91984;-62
2021/12/12 09:01:59;;;;;;;109.65;50.35;;;-7.90;87.60;-8.60;99966.00;;;;4967423;28;93726;-62
2021/12/12 09:04:32;;;;;;;100.60;47.53;;;-7.80;87.80;-8.50;99966.00;;;;4969452;28;93906;-60
2021/12/12 09:07:11;;;;;;;97.63;44.67;;;-7.80;87.70;-8.50;99964.00;;;;4966916;28;92358;-62
2021/12/12 09:09:48;;;;;;;104.60;48.17;;;-7.70;88.20;-8.40;99949.00;;;;4975475;28;92212;-62
2021/12/12 09:12:41;;;;;;;107.25;47.28;;;-7.70;87.70;-8.40;99956.00;;;;4979125;28;92912;-60
2021/12/12 09:15:22;;;;;;;146.65;57.40;;;-7.70;87.80;-8.40;99948.00;;;;4967556;28;92349;-61
2021/12/12 09:18:02;;;;;;;101.43;45.47;;;-7.60;87.80;-8.30;99959.00;;;;4969919;28;92442;-63
2021/12/12 09:20:50;;;;;;;109.95;49.10;;;-7.60;88.10;-8.30;99972.00;;;;4991000;28;91750;-62
2021/12/12 09:23:32;;;;;;;114.57;51.17;;;-7.60;87.90;-8.30;99975.00;;;;4964136;28;92767;-61
2021/12/12 09:26:06;;;;;;;104.38;49.50;;;-7.50;88.10;-8.30;99945.00;;;;4978256;28;93215;-62
2021/12/12 09:28:58;;;;;;;127.30;53.08;;;-7.50;88.10;-8.20;99955.00;;;;4977918;28;93092;-63
2021/12/12 09:31:53;;;;;;;108.10;47.70;;;-7.50;88.10;-8.20;99953.00;;;;4977560;28;92550;-61
2021/12/12 09:34:40;;;;;;;120.05;51.58;;;-7.50;88.40;-8.20;99946.00;;;;4977896;28;93622;-60
2021/12/12 09:37:16;;;;;;;90.18;45.63;;;-7.40;88.50;-8.20;99954.00;;;;4960192;28;95026;-62
2021/12/12 09:39:48;;;;;;;103.57;46.92;;;-7.40;88.60;-8.10;99938.00;;;;4962252;28;92468;-65
2021/12/12 09:42:47;;;;;;;115.18;49.55;;;-7.40;88.70;-8.20;99937.00;;;;4974144;28;92086;-62
2021/12/12 09:45:32;;;;;;;114.32;48.55;;;-7.40;89.20;-8.20;99944.00;;;;4974999;28;95247;-62
2021/12/12 09:51:33;;;;;;;143.32;55.42;;;-7.40;88.90;-8.10;99943.00;;;;4977142;28;92333;-61
2021/12/12 09:54:24;;;;;;;112.03;50.27;;;-7.30;88.90;-8.00;99954.00;;;;4976772;28;92347;-61
2021/12/12 09:57:37;;;;;;;118.18;53.55;;;-7.20;89.30;-7.90;99945.00;;;;4977842;28;93795;-63
2021/12/12 10:00:06;;;;;;;103.63;47.75;;;-7.20;89.20;-7.80;99933.00;;;;4972959;28;96779;-62
2021/12/12 10:02:41;;;;;;;122.05;53.25;;;-7.10;89.00;-7.80;99933.00;;;;4956352;28;92251;-62
2021/12/12 10:05:32;;;;;;;113.10;52.92;;;-7.00;88.90;-7.80;99930.00;;;;4957596;28;91962;-62
2021/12/12 10:08:16;;;;;;;115.68;52.30;;;-7.00;88.90;-7.70;99934.00;;;;4956133;28;95425;-63
2021/12/12 10:11:09;;;;;;;138.10;57.05;;;-7.00;89.00;-7.70;99941.00;;;;4961025;28;92482;-64
2021/12/12 10:13:47;;;;;;;166.55;62.63;;;-7.00;89.10;-7.70;99941.00;;;;4973917;28;92139;-63
2021/12/12 10:16:24;;;;;;;143.63;59.03;;;-7.00;89.10;-7.70;99932.00;;;;4965724;28;91339;-63
2021/12/12 10:19:08;;;;;;;158.82;62.85;;;-7.00;89.00;-7.70;99922.00;;;;4992012;28;92903;-63
2021/12/12 10:21:52;;;;;;;165.70;66.60;;;-7.00;89.00;-7.70;99932.00;;;;4976335;28;93021;-63
2021/12/12 10:24:50;;;;;;;159.23;63.97;;;-7.00;89.40;-7.70;99917.00;;;;4958222;28;93059;-61
2021/12/12 10:27:50;;;;;;;176.23;66.65;;;-7.00;89.40;-7.70;99911.00;;;;4973471;28;92511;-64
2021/12/12 10:30:25;;;;;;;137.38;59.92;;;-7.00;89.70;-7.70;99909.00;;;;4976139;28;93612;-61
2021/12/12 10:33:03;;;;;;;136.90;60.80;;;-6.90;90.00;-7.70;99921.00;;;;4977296;28;92334;-63
2021/12/12 10:35:59;;;;;;;178.98;69.22;;;-6.90;90.00;-7.60;99927.00;;;;4993216;28;92456;-63
2021/12/12 10:38:42;;;;;;;151.02;64.68;;;-6.90;90.00;-7.60;99922.00;;;;4978034;28;92121;-62
2021/12/12 10:41:23;;;;;;;180.15;65.97;;;-6.80;90.10;-7.60;99920.00;;;;4957563;28;93393;-64
2021/12/12 10:44:16;;;;;;;208.15;70.53;;;-6.80;90.10;-7.50;99910.00;;;;4957667;28;93541;-63
2021/12/12 10:46:58;;;;;;;211.85;63.15;;;-6.70;90.20;-7.50;99905.00;;;;4958288;28;92216;-62
2021/12/12 10:49:44;;;;;;;147.70;60.70;;;-6.70;90.30;-7.30;99905.00;;;;4957357;28;92100;-66
2021/12/12 10:52:21;;;;;;;259.45;68.32;;;-6.60;90.30;-7.30;99907.00;;;;4956339;28;93745;-66
2021/12/12 10:55:02;;;;;;;112.15;51.50;;;-6.50;90.30;-7.30;99910.00;;;;4956646;28;95390;-64
2021/12/12 10:57:34;;;;;;;181.60;62.72;;;-6.50;90.40;-7.20;99906.00;;;;4957624;28;92322;-63
2021/12/12 11:00:23;;;;;;;200.00;65.38;;;-6.40;90.40;-7.20;99913.00;;;;4976187;28;92055;-63
2021/12/12 11:03:09;;;;;;;186.98;69.43;;;-6.40;90.30;-7.10;99912.00;;;;4956463;28;93771;-63
2021/12/12 11:05:46;;;;;;;180.95;63.97;;;-6.40;90.40;-7.00;99914.00;;;;4957964;28;92426;-65
2021/12/12 11:08:35;;;;;;;144.30;52.50;;;-6.30;90.40;-7.00;99920.00;;;;4956576;28;92068;-64
2021/12/12 11:11:12;;;;;;;130.65;48.72;;;-6.30;90.50;-7.00;99924.00;;;;4964289;28;91797;-64
2021/12/12 11:13:59;;;;;;;164.90;61.53;;;-6.20;90.40;-6.90;99928.00;;;;4973835;28;92760;-62
2021/12/12 11:16:35;;;;;;;118.93;53.30;;;-6.20;90.50;-6.90;99926.00;;;;4965671;28;92470;-63
2021/12/12 11:19:16;;;;;;;126.63;54.40;;;-6.20;90.40;-6.90;99939.00;;;;4991943;28;93058;-62
2021/12/12 11:21:52;;;;;;;120.90;50.45;;;-6.10;90.40;-6.90;99930.00;;;;4959452;28;92380;-65
2021/12/12 11:24:27;;;;;;;167.95;64.43;;;-6.10;90.40;-6.80;99936.00;;;;4969367;28;92632;-64
2021/12/12 11:26:57;;;;;;;179.93;57.97;;;-6.10;90.50;-6.90;99928.00;;;;4975027;28;92725;-64
2021/12/12 11:29:35;;;;;;;106.53;49.83;;;-6.10;90.50;-6.80;99926.00;;;;4947725;28;92419;-64